Dati Storici

Data ora Umidita' aria (%) Temperatura aria (°C) Rad globale (W/m²) Gonioanemometro (°) Tacoanemometro (m/s) Pioggia (mm)
16-06-2020 14:10 50 % 25.619 186.483 3.565 0 0
16-06-2020 14:00 49.7 % 26.526 5.546 1.375 0 0
16-06-2020 13:50 50.3 % 26.779 104.234 1.298 0 0
16-06-2020 13:40 52.8 % 26.351 142.3 -0.044 0 0
16-06-2020 13:30 56 % 25.889 152.497 1.526 0 0
16-06-2020 13:20 56.5 % 25.566 214.696 0.666 0 0
16-06-2020 13:10 56.3 % 25.401 198.504 0.612 0 0
16-06-2020 13:00 56.8 % 25.085 127.037 1.114 0 0
16-06-2020 12:50 56.4 % 25.204 166.56 1.298 0 0
16-06-2020 12:40 56.5 % 25.64 194.227 0.541 0 0
16-06-2020 12:30 55.7 % 25.741 226.347 1.109 0 0
16-06-2020 12:20 56.8 % 25.512 123.515 0.663 0 0
16-06-2020 12:10 61.1 % 25.054 171.824 0.934 0 0
16-06-2020 12:00 59.6 % 24.718 283.759 0.945 0 0
16-06-2020 11:50 66 % 24.895 115.966 -0.043 0 0
16-06-2020 11:40 63.7 % 25.097 273.432 -0.045 0 0
16-06-2020 11:30 63.9 % 25.399 329.391 -0.045 0 0
16-06-2020 11:20 65.7 % 25.498 70.578 -0.044 0 0
16-06-2020 11:10 63.8 % 25.069 70.697 1.003 0 0
16-06-2020 11:00 61.1 % 25.922 61.682 0.383 0 0

I dati sono presentati in modo automatico a scopo informativo. In seguito a verifica i dati possono subire modifiche o essere invalidati e non riportati negli archivi definitivi.